Canefield Airport

Fair with dust haze
33oC (91oF)

Fair with dust haze


Winds: North westerly @ 02kts / 04km/h

Humidity: 75%

Barometric Pressure: 1014 mb

Accumulated Rainfall for September: 60.2 mm

Updated: 16:00 local time (20:00 UTC)

Douglas-Charles Airport

Partly cloudy with slight haze
29oC (84oF)

Partly cloudy with slight haze


Winds: South easterly @ 06kts / 11km/h

Humidity: 78%

Barometric Pressure: 1016 mb

Accumulated Rainfall for September: 153.3 mm

Updated: 17:00 local time (21:00 UTC)

Satellite Imagery

Satellite Imagery
Click image for larger view. (Source: National Hurricane Center).

Aviation Routine Report (METAR)

Douglas-Charles: METAR TDPD 162100Z 13006KT 9999 SCT019 29/25 Q1016=
Canefield: METAR TDCF 162000Z 31002KT 9999 FEW018 33/27 Q1014=